KLAF/LAF METAR and TAF weather

Enter ICAO airport designator
Station Type Date Time Source
KLAF METAR 2020/01/29 12:54 UTC NOAA

KLAF 291254Z 03003KT 10SM OVC024 M01/M03 A3017 RMK AO2 SLP223 T10061028


Station Type Date Time Source
KLAF Decoded METAR 2020/01/29 12:54 UTC NOAA

LAFAYETTE PURDUE UNIV AIRPORT , IN, United States (KLAF) 40-25N 86-57W 182M
Jan 29, 2020 - 07:54 AM EST / 2020.01.29 1254 UTC
Wind: from the NNE (030 degrees) at 3 MPH (3 KT):0
Visibility: 10 mile(s):0
Sky conditions: overcast
Temperature: 30.9 F (-0.6 C)
Dew Point: 27.0 F (-2.8 C)
Relative Humidity: 85%
Pressure (altimeter): 30.17 in. Hg (1021 hPa)
ob: KLAF 291254Z 03003KT 10SM OVC024 M01/M03 A3017 RMK AO2 SLP223 T10061028
cycle: 13

Station Type Date Time Source
KLAF TAF 2020/01/29 12:27 UTC NOAA

TAF KLAF 291124Z 2912/3012 VRB03KT P6SM OVC020
FM291900 VRB04KT P6SM VCSH OVC025
FM300300 VRB04KT P6SM OVC028
AMD LTD TO CLD VIS AND WIND TIL 291400

Example: see airport list